Time;durP1;ratioP1;P1;durP2;ratioP2;P2;SDS_P1;SDS_P2;PMS_P1;PMS_P2;Temp;Humidity;BMP_temperature;BMP_pressure;BME280_temperature;BME280_humidity;BME280_pressure;Samples;Min_cycle;Max_cycle;Signal;HPM_P1;HPM_P2
2022/01/14 00:01:55;;;;;;;75.95;38.08;;;;;;;;;;5074775;28;20040;-40
2022/01/14 00:04:22;;;;;;;72.00;35.72;;;;;;;;;;5074684;28;20383;-39
2022/01/14 00:06:48;;;;;;;87.45;41.85;;;;;;;;;;5074324;28;20036;-40
2022/01/14 00:09:16;;;;;;;71.03;35.90;;;;;;;;;;5074085;28;20037;-39
2022/01/14 00:11:50;;;;;;;68.13;34.45;;;;;;;;;;5073527;28;20078;-39
2022/01/14 00:16:43;;;;;;;69.30;33.88;;;;;;;;;;5074400;28;20043;-39
2022/01/14 00:19:09;;;;;;;65.57;33.08;;;;;;;;;;5074079;28;20458;-40
2022/01/14 00:21:37;;;;;;;70.32;35.05;;;;;;;;;;5074307;28;20089;-42
2022/01/14 00:24:22;;;;;;;70.38;34.78;;;;;;;;;;5074026;28;20074;-44
2022/01/14 00:34:53;;;;;;;67.00;32.35;;;;;;;;;;5073863;28;20025;-40
2022/01/14 00:37:22;;;;;;;63.58;32.25;;;;;;;;;;5074048;28;20478;-40
2022/01/14 00:39:48;;;;;;;64.35;33.20;;;;;;;;;;5072700;28;20063;-40
2022/01/14 00:42:14;;;;;;;65.88;33.05;;;;;;;;;;5073696;28;20024;-39
2022/01/14 00:44:40;;;;;;;65.07;33.15;;;;;;;;;;5073591;28;20025;-39
2022/01/14 00:47:07;;;;;;;63.35;33.08;;;;;;;;;;5073710;28;20060;-39
2022/01/14 00:49:33;;;;;;;60.67;31.38;;;;;;;;;;5073763;28;20083;-39
2022/01/14 00:51:59;;;;;;;57.15;31.95;;;;;;;;;;5073547;28;20035;-39
2022/01/14 00:54:26;;;;;;;55.95;30.30;;;;;;;;;;5073463;28;20453;-40
2022/01/14 00:59:27;;;;;;;52.72;27.48;;;;;;;;;;5073414;28;20386;-39
2022/01/14 01:01:56;;;;;;;56.05;28.67;;;;;;;;;;5073611;28;20024;-39
2022/01/14 01:04:49;;;;;;;56.47;28.45;;;;;;;;;;5073542;28;20107;-39
2022/01/14 01:07:17;;;;;;;65.53;32.50;;;;;;;;;;5071891;28;20036;-40
2022/01/14 01:09:48;;;;;;;58.42;29.13;;;;;;;;;;5073240;28;20040;-40
2022/01/14 01:12:27;;;;;;;60.33;30.30;;;;;;;;;;5073467;28;20032;-39
2022/01/14 01:15:06;;;;;;;58.90;29.30;;;;;;;;;;5073273;28;20036;-38
2022/01/14 01:17:33;;;;;;;63.90;31.65;;;;;;;;;;5073406;28;20017;-39
2022/01/14 01:20:02;;;;;;;60.08;31.15;;;;;;;;;;5073538;28;20024;-39
2022/01/14 01:22:28;;;;;;;63.35;33.60;;;;;;;;;;5073354;28;20017;-39
2022/01/14 01:24:54;;;;;;;59.40;29.50;;;;;;;;;;5073122;28;20024;-39
2022/01/14 01:27:21;;;;;;;60.58;31.38;;;;;;;;;;5072945;28;20545;-40
2022/01/14 01:29:53;;;;;;;56.50;30.27;;;;;;;;;;5073034;28;20072;-39
2022/01/14 01:32:19;;;;;;;82.70;40.67;;;;;;;;;;5073039;28;20035;-38
2022/01/14 01:34:45;;;;;;;88.30;42.05;;;;;;;;;;5073135;28;20028;-39
2022/01/14 01:37:12;;;;;;;78.68;38.50;;;;;;;;;;5073024;28;20377;-39
2022/01/14 01:39:38;;;;;;;73.90;37.65;;;;;;;;;;5073186;28;20021;-40
2022/01/14 01:42:08;;;;;;;64.03;31.98;;;;;;;;;;5071829;28;20505;-40
2022/01/14 01:44:35;;;;;;;66.45;33.00;;;;;;;;;;5073158;28;20492;-40
2022/01/14 01:47:01;;;;;;;67.40;31.95;;;;;;;;;;5073226;28;20490;-40
2022/01/14 01:49:49;;;;;;;66.43;32.20;;;;;;;;;;5072875;28;20416;-41
2022/01/14 01:52:18;;;;;;;71.32;33.97;;;;;;;;;;5073193;28;20428;-39
2022/01/14 01:54:44;;;;;;;66.78;31.98;;;;;;;;;;5072995;28;20405;-39
2022/01/14 01:57:12;;;;;;;66.78;32.90;;;;;;;;;;5072835;28;20023;-39
2022/01/14 01:59:38;;;;;;;64.35;33.75;;;;;;;;;;5072820;28;20031;-39
2022/01/14 02:02:04;;;;;;;67.90;33.47;;;;;;;;;;5072758;28;20454;-40
2022/01/14 02:04:30;;;;;;;62.15;30.33;;;;;;;;;;5073311;28;20539;-39
2022/01/14 02:06:57;;;;;;;54.53;28.30;;;;;;;;;;5072961;28;20028;-40
2022/01/14 02:09:24;;;;;;;61.35;29.98;;;;;;;;;;5072846;28;20029;-39
2022/01/14 02:11:50;;;;;;;60.58;30.38;;;;;;;;;;5072642;28;20028;-39
2022/01/14 02:17:17;;;;;;;57.63;28.40;;;;;;;;;;5072892;28;20478;-39
2022/01/14 02:22:51;;;;;;;61.70;29.10;;;;;;;;;;5072968;28;20034;-40
2022/01/14 02:25:28;;;;;;;58.88;29.17;;;;;;;;;;5072555;28;20025;-38
2022/01/14 02:27:56;;;;;;;68.35;31.60;;;;;;;;;;5072269;28;20494;-39
2022/01/14 02:30:23;;;;;;;63.42;29.45;;;;;;;;;;5072560;28;20128;-39
2022/01/14 02:32:50;;;;;;;61.15;29.33;;;;;;;;;;5072627;28;20021;-40
2022/01/14 02:35:16;;;;;;;63.80;30.05;;;;;;;;;;5073427;28;20478;-39
2022/01/14 02:37:42;;;;;;;61.03;30.15;;;;;;;;;;5076129;28;20485;-39
2022/01/14 02:40:09;;;;;;;60.13;29.40;;;;;;;;;;5076030;28;20029;-40
2022/01/14 02:42:35;;;;;;;55.67;27.42;;;;;;;;;;5076049;28;20044;-39
2022/01/14 02:45:05;;;;;;;60.05;29.35;;;;;;;;;;5076248;28;20374;-39
2022/01/14 02:47:31;;;;;;;59.03;27.67;;;;;;;;;;5075870;28;20029;-38
2022/01/14 02:49:57;;;;;;;62.28;29.00;;;;;;;;;;5075913;28;20526;-40
2022/01/14 02:52:39;;;;;;;74.40;33.65;;;;;;;;;;5075856;28;20020;-40
2022/01/14 02:55:17;;;;;;;58.55;29.10;;;;;;;;;;5075807;28;20036;-39
2022/01/14 02:57:47;;;;;;;59.22;29.55;;;;;;;;;;5075624;28;20016;-40
2022/01/14 03:00:17;;;;;;;60.10;29.73;;;;;;;;;;5075956;28;20035;-40
2022/01/14 03:02:44;;;;;;;63.90;29.70;;;;;;;;;;5075625;28;20027;-38
2022/01/14 03:05:11;;;;;;;64.85;29.80;;;;;;;;;;5075669;28;20033;-39
2022/01/14 03:07:37;;;;;;;69.07;30.73;;;;;;;;;;5075562;28;20100;-39
2022/01/14 03:10:04;;;;;;;64.93;29.17;;;;;;;;;;5075609;28;20133;-39
2022/01/14 03:12:30;;;;;;;70.05;31.00;;;;;;;;;;5075510;28;20043;-40
2022/01/14 03:14:56;;;;;;;63.85;29.38;;;;;;;;;;5075624;28;20029;-40
2022/01/14 03:17:23;;;;;;;68.82;31.10;;;;;;;;;;5075509;28;20052;-43
2022/01/14 03:19:49;;;;;;;67.78;30.65;;;;;;;;;;5075343;28;20056;-42
2022/01/14 03:22:22;;;;;;;59.83;29.08;;;;;;;;;;5075286;28;20145;-43
2022/01/14 03:27:14;;;;;;;65.72;31.30;;;;;;;;;;5075371;28;20032;-40
2022/01/14 03:29:41;;;;;;;63.30;31.52;;;;;;;;;;5074866;28;20052;-39
2022/01/14 03:32:07;;;;;;;62.00;28.92;;;;;;;;;;5075222;28;20025;-44
2022/01/14 03:34:34;;;;;;;58.85;29.95;;;;;;;;;;5075244;28;20025;-40
2022/01/14 03:37:02;;;;;;;64.25;31.75;;;;;;;;;;5075136;28;20018;-40
2022/01/14 03:39:28;;;;;;;59.38;27.52;;;;;;;;;;5073853;28;20028;-40
2022/01/14 03:41:55;;;;;;;64.40;29.33;;;;;;;;;;5074794;28;20032;-40
2022/01/14 03:44:21;;;;;;;61.75;29.05;;;;;;;;;;5075091;28;20028;-39
2022/01/14 03:46:47;;;;;;;60.15;27.95;;;;;;;;;;5074622;28;20390;-39
2022/01/14 03:49:13;;;;;;;59.35;27.70;;;;;;;;;;5074623;28;20485;-38
2022/01/14 03:51:41;;;;;;;56.22;27.80;;;;;;;;;;5074564;28;20024;-39
2022/01/14 03:54:07;;;;;;;58.78;27.95;;;;;;;;;;5074839;28;20017;-38
2022/01/14 03:56:33;;;;;;;59.50;27.60;;;;;;;;;;5074405;28;20584;-39
2022/01/14 03:59:01;;;;;;;60.05;29.40;;;;;;;;;;5074748;28;20056;-39
2022/01/14 04:01:28;;;;;;;59.40;27.85;;;;;;;;;;5074504;28;20493;-39
2022/01/14 04:03:54;;;;;;;65.90;29.65;;;;;;;;;;5074490;28;20028;-39
2022/01/14 04:06:20;;;;;;;58.75;27.85;;;;;;;;;;5074447;28;20046;-38
2022/01/14 04:08:46;;;;;;;55.85;26.73;;;;;;;;;;5074347;28;20021;-40
2022/01/14 04:11:12;;;;;;;58.55;26.80;;;;;;;;;;5074207;28;20462;-40
2022/01/14 04:13:52;;;;;;;59.97;29.50;;;;;;;;;;5074325;28;20390;-39
2022/01/14 04:16:19;;;;;;;56.88;27.48;;;;;;;;;;5074196;28;20159;-39
2022/01/14 04:18:46;;;;;;;52.75;26.90;;;;;;;;;;5074310;28;20033;-40
2022/01/14 04:21:12;;;;;;;57.70;27.88;;;;;;;;;;5074107;28;20031;-39
2022/01/14 04:23:38;;;;;;;59.35;27.40;;;;;;;;;;5074347;28;20103;-39
2022/01/14 04:26:04;;;;;;;54.28;27.45;;;;;;;;;;5073866;28;20048;-39
2022/01/14 04:28:34;;;;;;;54.22;25.80;;;;;;;;;;5073696;28;20060;-39
2022/01/14 04:31:00;;;;;;;57.17;25.77;;;;;;;;;;5074143;28;20082;-39
2022/01/14 04:33:28;;;;;;;54.45;26.40;;;;;;;;;;5073975;28;20044;-39
2022/01/14 04:35:54;;;;;;;50.90;25.70;;;;;;;;;;5073778;28;20032;-39
2022/01/14 04:38:20;;;;;;;57.35;24.90;;;;;;;;;;5074020;28;20013;-39
2022/01/14 04:40:47;;;;;;;50.13;26.17;;;;;;;;;;5073636;28;20466;-39
2022/01/14 04:43:16;;;;;;;56.08;26.05;;;;;;;;;;5074014;28;20024;-40
2022/01/14 04:45:55;;;;;;;53.75;25.35;;;;;;;;;;5073784;28;20082;-39
2022/01/14 04:48:21;;;;;;;55.00;25.58;;;;;;;;;;5073656;28;20029;-38
2022/01/14 04:50:47;;;;;;;53.88;28.08;;;;;;;;;;5073595;28;20535;-38
2022/01/14 04:53:14;;;;;;;50.40;24.58;;;;;;;;;;5072712;28;20060;-41
2022/01/14 04:55:40;;;;;;;55.55;25.92;;;;;;;;;;5073694;28;20101;-39
2022/01/14 04:58:06;;;;;;;52.38;25.80;;;;;;;;;;5072931;28;20441;-39
2022/01/14 05:00:32;;;;;;;57.60;26.45;;;;;;;;;;5073558;28;20024;-41
2022/01/14 05:02:59;;;;;;;57.28;25.98;;;;;;;;;;5073454;28;20054;-39
2022/01/14 05:05:28;;;;;;;52.40;25.83;;;;;;;;;;5073427;28;20021;-39
2022/01/14 05:07:55;;;;;;;51.67;25.05;;;;;;;;;;5073616;28;20495;-39
2022/01/14 05:12:49;;;;;;;55.42;26.33;;;;;;;;;;5073370;28;20535;-38
2022/01/14 05:15:16;;;;;;;57.75;26.33;;;;;;;;;;5073439;28;20035;-39
2022/01/14 05:17:42;;;;;;;58.80;26.45;;;;;;;;;;5072400;28;20508;-40
2022/01/14 05:20:09;;;;;;;55.50;27.10;;;;;;;;;;5073186;28;20078;-43
2022/01/14 05:22:35;;;;;;;47.03;24.30;;;;;;;;;;5073404;28;20085;-40
2022/01/14 05:25:01;;;;;;;58.22;28.67;;;;;;;;;;5073386;28;20051;-40
2022/01/14 05:27:27;;;;;;;63.33;31.85;;;;;;;;;;5072977;28;20025;-40
2022/01/14 05:29:53;;;;;;;92.90;42.67;;;;;;;;;;5073239;28;20037;-40
2022/01/14 05:32:21;;;;;;;122.40;52.85;;;;;;;;;;5073238;28;20233;-42
2022/01/14 05:34:49;;;;;;;80.25;36.40;;;;;;;;;;5073103;28;20024;-41
2022/01/14 05:37:15;;;;;;;61.15;30.48;;;;;;;;;;5073467;28;20066;-41
2022/01/14 05:39:42;;;;;;;61.78;30.58;;;;;;;;;;5073452;28;20070;-48
2022/01/14 05:42:08;;;;;;;118.85;47.63;;;;;;;;;;5073222;28;20021;-51
2022/01/14 05:44:35;;;;;;;142.18;51.85;;;;;;;;;;5073302;28;20025;-44
2022/01/14 05:47:01;;;;;;;137.15;54.53;;;;;;;;;;5073242;28;20020;-39
2022/01/14 05:49:27;;;;;;;112.97;50.45;;;;;;;;;;5073228;28;20108;-39
2022/01/14 05:51:54;;;;;;;86.05;40.75;;;;;;;;;;5073082;28;20020;-39
2022/01/14 05:54:20;;;;;;;81.72;39.05;;;;;;;;;;5073162;28;20028;-43
2022/01/14 05:56:49;;;;;;;88.95;41.47;;;;;;;;;;5072713;28;20505;-42
2022/01/14 05:59:15;;;;;;;103.88;47.40;;;;;;;;;;5072992;28;20033;-38
2022/01/14 06:01:41;;;;;;;107.72;49.58;;;;;;;;;;5073059;28;20025;-40
2022/01/14 06:04:08;;;;;;;97.93;46.72;;;;;;;;;;5072889;28;20383;-42
2022/01/14 06:06:34;;;;;;;126.95;55.65;;;;;;;;;;5072904;28;20028;-42
2022/01/14 06:09:05;;;;;;;110.65;50.25;;;;;;;;;;5073290;28;20036;-43
2022/01/14 06:11:32;;;;;;;81.30;39.45;;;;;;;;;;5076682;28;20031;-40
2022/01/14 06:14:00;;;;;;;58.35;29.27;;;;;;;;;;5076642;28;20028;-38
2022/01/14 06:16:26;;;;;;;56.05;26.38;;;;;;;;;;5076706;28;20039;-40
2022/01/14 06:18:52;;;;;;;55.72;25.42;;;;;;;;;;5076601;28;20017;-40
2022/01/14 06:21:18;;;;;;;54.90;26.33;;;;;;;;;;5076598;28;20017;-40
2022/01/14 06:23:44;;;;;;;51.60;26.60;;;;;;;;;;5076336;28;20441;-39
2022/01/14 06:26:10;;;;;;;51.38;26.27;;;;;;;;;;5076134;28;20044;-40
2022/01/14 06:28:36;;;;;;;46.88;24.48;;;;;;;;;;5074792;28;20542;-39
2022/01/14 06:31:02;;;;;;;54.22;25.88;;;;;;;;;;5076360;28;20382;-39
2022/01/14 06:33:29;;;;;;;49.58;24.38;;;;;;;;;;5076073;28;20113;-39
2022/01/14 06:35:57;;;;;;;49.40;24.80;;;;;;;;;;5076318;28;20024;-39
2022/01/14 06:38:23;;;;;;;48.72;24.83;;;;;;;;;;5076182;28;20046;-40
2022/01/14 06:40:49;;;;;;;46.97;24.02;;;;;;;;;;5076100;28;20020;-41
2022/01/14 06:43:18;;;;;;;47.97;22.75;;;;;;;;;;5076060;28;20489;-40
2022/01/14 06:45:44;;;;;;;45.92;23.30;;;;;;;;;;5076155;28;20020;-39
2022/01/14 06:48:10;;;;;;;38.53;21.30;;;;;;;;;;5076013;28;20037;-41
2022/01/14 06:50:37;;;;;;;39.78;20.50;;;;;;;;;;5076239;28;20090;-39
2022/01/14 06:53:03;;;;;;;41.33;23.55;;;;;;;;;;5075938;28;20063;-38
2022/01/14 06:55:29;;;;;;;44.67;24.40;;;;;;;;;;5075755;28;20520;-39
2022/01/14 06:57:55;;;;;;;43.13;23.35;;;;;;;;;;5075593;28;20032;-38
2022/01/14 07:00:21;;;;;;;43.58;24.55;;;;;;;;;;5075716;28;20028;-39
2022/01/14 07:02:48;;;;;;;1999.90;999.90;;;;;;;;;;5075510;28;20020;-44
2022/01/14 07:05:14;;;;;;;1999.90;999.90;;;;;;;;;;5075654;28;20039;-42
2022/01/14 07:07:40;;;;;;;41.08;23.90;;;;;;;;;;5075765;28;20394;-43
2022/01/14 07:10:07;;;;;;;36.58;22.85;;;;;;;;;;5075506;28;20486;-43
2022/01/14 07:12:34;;;;;;;45.55;25.27;;;;;;;;;;5075470;28;20029;-43
2022/01/14 07:15:04;;;;;;;53.70;30.25;;;;;;;;;;5075537;28;20036;-43
2022/01/14 07:17:30;;;;;;;55.97;33.35;;;;;;;;;;5075378;28;20021;-43
2022/01/14 07:20:00;;;;;;;48.40;29.67;;;;;;;;;;5075544;28;20468;-44
2022/01/14 07:22:26;;;;;;;41.45;24.17;;;;;;;;;;5074901;28;20031;-42
2022/01/14 07:24:52;;;;;;;49.30;28.92;;;;;;;;;;5075347;28;20082;-48
2022/01/14 07:27:18;;;;;;;46.50;26.13;;;;;;;;;;5075074;28;20028;-50
2022/01/14 07:29:45;;;;;;;41.53;24.00;;;;;;;;;;5074932;28;20064;-50
2022/01/14 07:32:13;;;;;;;40.30;23.45;;;;;;;;;;5075023;28;20024;-49
2022/01/14 07:34:39;;;;;;;41.10;23.80;;;;;;;;;;5073932;28;20504;-49
2022/01/14 07:37:08;;;;;;;37.15;23.67;;;;;;;;;;5075210;28;20027;-50
2022/01/14 07:39:34;;;;;;;39.53;23.75;;;;;;;;;;5075088;28;20016;-50
2022/01/14 07:42:00;;;;;;;39.60;24.02;;;;;;;;;;5075128;28;20028;-47
2022/01/14 07:44:26;;;;;;;39.13;24.10;;;;;;;;;;5074996;28;20027;-61
2022/01/14 07:46:52;;;;;;;39.50;23.08;;;;;;;;;;5074745;28;20025;-59
2022/01/14 07:49:18;;;;;;;45.13;23.98;;;;;;;;;;5074619;28;20037;-55
2022/01/14 07:51:45;;;;;;;48.92;25.60;;;;;;;;;;5074824;28;20024;-49
2022/01/14 07:54:11;;;;;;;43.05;26.30;;;;;;;;;;5074540;28;20363;-52
2022/01/14 07:56:39;;;;;;;46.10;28.80;;;;;;;;;;5074605;28;20433;-54
2022/01/14 07:59:06;;;;;;;43.13;26.73;;;;;;;;;;5074617;28;20081;-53
2022/01/14 08:01:35;;;;;;;46.85;26.23;;;;;;;;;;5074528;28;20016;-54
2022/01/14 08:04:03;;;;;;;43.58;28.13;;;;;;;;;;5074420;28;20029;-53
2022/01/14 08:06:32;;;;;;;42.88;26.83;;;;;;;;;;5074400;28;20035;-51
2022/01/14 08:08:58;;;;;;;41.08;24.60;;;;;;;;;;5074326;28;20458;-54
2022/01/14 08:11:24;;;;;;;37.08;24.60;;;;;;;;;;5074382;28;20051;-52
2022/01/14 08:13:53;;;;;;;35.25;24.80;;;;;;;;;;5074171;28;20100;-53
2022/01/14 08:16:19;;;;;;;41.08;26.70;;;;;;;;;;5074423;28;20023;-53
2022/01/14 08:18:45;;;;;;;40.58;25.40;;;;;;;;;;5074161;28;20020;-55
2022/01/14 08:21:11;;;;;;;40.70;25.00;;;;;;;;;;5074510;28;20042;-54
2022/01/14 08:23:39;;;;;;;37.60;22.65;;;;;;;;;;5074176;28;20020;-54
2022/01/14 08:26:05;;;;;;;38.88;24.73;;;;;;;;;;5073925;28;20070;-53
2022/01/14 08:28:31;;;;;;;45.03;28.33;;;;;;;;;;5073896;28;20109;-57
2022/01/14 08:30:57;;;;;;;53.53;33.30;;;;;;;;;;5073890;28;20029;-57
2022/01/14 08:33:23;;;;;;;47.83;31.20;;;;;;;;;;5072924;28;20367;-57
2022/01/14 08:35:50;;;;;;;48.88;32.80;;;;;;;;;;5074114;28;20025;-54
2022/01/14 08:38:16;;;;;;;36.47;22.48;;;;;;;;;;5073872;28;20053;-54
2022/01/14 08:40:42;;;;;;;29.52;20.48;;;;;;;;;;5073833;28;20048;-55
2022/01/14 08:43:08;;;;;;;32.22;22.17;;;;;;;;;;5073663;28;20028;-51
2022/01/14 08:45:35;;;;;;;34.90;23.42;;;;;;;;;;5072670;28;20033;-55
2022/01/14 08:48:01;;;;;;;37.50;25.25;;;;;;;;;;5073562;28;20027;-54
2022/01/14 08:50:37;;;;;;;44.60;28.20;;;;;;;;;;5092125;28;20043;-53
2022/01/14 08:53:04;;;;;;;37.10;24.52;;;;;;;;;;5091521;28;20121;-55
2022/01/14 08:55:30;;;;;;;35.85;23.77;;;;;;;;;;5093311;28;20208;-54
2022/01/14 08:57:57;;;;;;;32.13;23.40;;;;;;;;;;5093021;28;20093;-57
2022/01/14 09:00:24;;;;;;;39.80;27.10;;;;;;;;;;5093082;28;20103;-55
2022/01/14 09:02:51;;;;;;;45.15;27.52;;;;;;;;;;5093583;28;20020;-55
2022/01/14 09:05:17;;;;;;;35.65;23.13;;;;;;;;;;5093074;28;20024;-54
2022/01/14 09:07:43;;;;;;;32.38;22.83;;;;;;;;;;5092946;28;20016;-53
2022/01/14 09:10:10;;;;;;;35.60;24.40;;;;;;;;;;5092889;28;20469;-53
2022/01/14 09:12:37;;;;;;;45.13;30.05;;;;;;;;;;5092756;28;20020;-54
2022/01/14 09:15:04;;;;;;;32.22;23.80;;;;;;;;;;5093016;28;20020;-54
2022/01/14 09:17:32;;;;;;;46.90;33.78;;;;;;;;;;5092811;28;20016;-52
2022/01/14 09:20:01;;;;;;;40.28;28.33;;;;;;;;;;5093444;28;20015;-51
2022/01/14 09:22:30;;;;;;;40.70;27.92;;;;;;;;;;5093020;28;20032;-52
2022/01/14 09:24:58;;;;;;;34.75;26.25;;;;;;;;;;5090585;28;20048;-53
2022/01/14 09:27:24;;;;;;;40.67;25.00;;;;;;;;;;5092340;28;20028;-54
2022/01/14 09:29:50;;;;;;;38.17;27.77;;;;;;;;;;5093253;28;20075;-51
2022/01/14 09:32:16;;;;;;;39.40;26.45;;;;;;;;;;5093243;28;20539;-52
2022/01/14 09:34:42;;;;;;;38.50;26.02;;;;;;;;;;5093407;28;20031;-52
2022/01/14 09:37:08;;;;;;;38.55;25.63;;;;;;;;;;5093009;28;20081;-53
2022/01/14 09:39:36;;;;;;;38.88;24.75;;;;;;;;;;5093088;28;20461;-53
2022/01/14 09:42:04;;;;;;;37.72;23.67;;;;;;;;;;5093211;28;20036;-53
2022/01/14 09:44:30;;;;;;;34.53;23.95;;;;;;;;;;5094525;28;20039;-54
2022/01/14 09:46:57;;;;;;;35.63;22.88;;;;;;;;;;5097327;28;20055;-53
2022/01/14 09:49:23;;;;;;;28.58;20.27;;;;;;;;;;5097485;28;20036;-53
2022/01/14 09:51:49;;;;;;;35.17;23.70;;;;;;;;;;5097394;28;20036;-53
2022/01/14 09:54:15;;;;;;;33.72;23.33;;;;;;;;;;5097232;28;20028;-52
2022/01/14 09:56:47;;;;;;;46.08;28.20;;;;;;;;;;5097225;28;20086;-52
2022/01/14 09:59:13;;;;;;;41.40;26.17;;;;;;;;;;5097154;28;20028;-51
2022/01/14 10:01:44;;;;;;;39.53;25.13;;;;;;;;;;5097019;28;20020;-53
2022/01/14 10:04:21;;;;;;;45.38;29.05;;;;;;;;;;5097039;28;20031;-52
2022/01/14 10:06:49;;;;;;;42.53;25.10;;;;;;;;;;5097383;28;20025;-52
2022/01/14 10:09:34;;;;;;;38.20;25.08;;;;;;;;;;5096941;28;20024;-52
2022/01/14 10:12:07;;;;;;;36.03;21.90;;;;;;;;;;5097045;28;20355;-52
2022/01/14 10:14:35;;;;;;;46.42;23.60;;;;;;;;;;5096801;28;20411;-52
2022/01/14 10:17:02;;;;;;;58.70;28.48;;;;;;;;;;5097053;28;20032;-52
2022/01/14 10:19:33;;;;;;;65.25;30.65;;;;;;;;;;5096640;28;20548;-50
2022/01/14 10:22:00;;;;;;;74.03;28.75;;;;;;;;;;5096743;28;20036;-54
2022/01/14 10:24:27;;;;;;;49.80;24.13;;;;;;;;;;5096706;28;20016;-54
2022/01/14 10:26:53;;;;;;;65.65;26.30;;;;;;;;;;5096878;28;20444;-53
2022/01/14 10:29:27;;;;;;;52.35;24.17;;;;;;;;;;5096322;28;20063;-54
2022/01/14 10:31:54;;;;;;;48.53;22.33;;;;;;;;;;5096803;28;20016;-51
2022/01/14 10:34:20;;;;;;;43.17;22.17;;;;;;;;;;5096883;28;20020;-52
2022/01/14 10:36:47;;;;;;;52.38;22.98;;;;;;;;;;5096506;28;20568;-52
2022/01/14 10:39:27;;;;;;;63.60;25.67;;;;;;;;;;5095184;28;20059;-52
2022/01/14 10:41:57;;;;;;;50.25;22.27;;;;;;;;;;5096470;28;20056;-53
2022/01/14 10:44:31;;;;;;;60.78;23.10;;;;;;;;;;5096322;28;20103;-53
2022/01/14 10:47:15;;;;;;;45.47;21.85;;;;;;;;;;5096403;28;20085;-52
2022/01/14 10:49:42;;;;;;;55.53;23.30;;;;;;;;;;5096122;28;20036;-52
2022/01/14 10:52:15;;;;;;;45.10;20.38;;;;;;;;;;5096154;28;20027;-52
2022/01/14 10:54:49;;;;;;;41.75;21.52;;;;;;;;;;5096803;28;20020;-51
2022/01/14 10:57:20;;;;;;;45.67;22.48;;;;;;;;;;5095082;28;20020;-55
2022/01/14 10:59:47;;;;;;;56.08;27.98;;;;;;;;;;5096380;28;20031;-52
2022/01/14 11:02:31;;;;;;;72.43;29.70;;;;;;;;;;5096471;28;20470;-53
2022/01/14 11:05:24;;;;;;;77.88;36.72;;;;;;;;;;5096205;28;20027;-52
2022/01/14 11:07:50;;;;;;;54.95;25.27;;;;;;;;;;5093966;28;20040;-51
2022/01/14 11:10:22;;;;;;;52.75;25.25;;;;;;;;;;5095786;28;20032;-51
2022/01/14 11:12:48;;;;;;;51.17;27.40;;;;;;;;;;5095707;28;20059;-53
2022/01/14 11:15:15;;;;;;;45.88;20.95;;;;;;;;;;5095855;28;20020;-51
2022/01/14 11:17:42;;;;;;;35.20;18.92;;;;;;;;;;5095734;28;20060;-52
2022/01/14 11:20:10;;;;;;;40.60;21.55;;;;;;;;;;5095648;28;20028;-52
2022/01/14 11:25:24;;;;;;;42.75;22.13;;;;;;;;;;5096016;28;20035;-52
2022/01/14 11:27:53;;;;;;;47.80;25.05;;;;;;;;;;5095489;28;20405;-52
2022/01/14 11:30:19;;;;;;;51.67;24.52;;;;;;;;;;5095386;28;20131;-53
2022/01/14 11:32:52;;;;;;;55.60;25.15;;;;;;;;;;5095700;28;20103;-54
2022/01/14 11:35:26;;;;;;;40.95;21.27;;;;;;;;;;5095384;28;20024;-51
2022/01/14 11:37:52;;;;;;;50.17;24.13;;;;;;;;;;5095313;28;20028;-51
2022/01/14 11:40:19;;;;;;;47.78;24.13;;;;;;;;;;5095336;28;20081;-58
2022/01/14 11:42:49;;;;;;;53.05;25.98;;;;;;;;;;5095418;28;20024;-52
2022/01/14 11:45:38;;;;;;;61.50;30.42;;;;;;;;;;5095101;28;20034;-51
2022/01/14 11:48:04;;;;;;;43.10;22.60;;;;;;;;;;5095209;28;20036;-52
2022/01/14 11:50:30;;;;;;;40.50;18.85;;;;;;;;;;5094986;28;20032;-53
2022/01/14 11:52:58;;;;;;;39.47;20.13;;;;;;;;;;5094918;28;20016;-54
2022/01/14 11:55:24;;;;;;;49.28;22.67;;;;;;;;;;5094934;28;20077;-56
2022/01/14 11:57:50;;;;;;;29.65;18.17;;;;;;;;;;5094983;28;20100;-54
2022/01/14 12:00:30;;;;;;;44.30;22.65;;;;;;;;;;5094822;28;20039;-55
2022/01/14 12:02:59;;;;;;;46.10;23.40;;;;;;;;;;5094750;28;20024;-55
2022/01/14 12:05:26;;;;;;;41.40;20.38;;;;;;;;;;5094650;28;20012;-52
2022/01/14 12:08:02;;;;;;;45.72;22.02;;;;;;;;;;5094871;28;20058;-56
2022/01/14 12:10:34;;;;;;;28.50;17.08;;;;;;;;;;5094879;28;20035;-57
2022/01/14 12:16:35;;;;;;;32.17;18.02;;;;;;;;;;5094738;28;20398;-56
2022/01/14 12:19:02;;;;;;;32.10;16.98;;;;;;;;;;5094571;28;20031;-55
2022/01/14 12:21:43;;;;;;;33.45;18.52;;;;;;;;;;5093245;28;20115;-55
2022/01/14 12:24:18;;;;;;;31.88;18.30;;;;;;;;;;5094308;28;20064;-56
2022/01/14 12:26:54;;;;;;;35.58;20.58;;;;;;;;;;5094524;28;20385;-54
2022/01/14 12:29:21;;;;;;;29.48;16.90;;;;;;;;;;5094031;28;20117;-56
2022/01/14 12:32:06;;;;;;;38.20;18.95;;;;;;;;;;5094477;28;20035;-50
2022/01/14 12:34:36;;;;;;;33.63;16.58;;;;;;;;;;5094278;28;20084;-52
2022/01/14 12:37:05;;;;;;;37.83;18.20;;;;;;;;;;5094593;28;20378;-55
2022/01/14 12:39:32;;;;;;;30.42;16.77;;;;;;;;;;5094295;28;20401;-53
2022/01/14 12:41:59;;;;;;;25.33;16.13;;;;;;;;;;5094209;28;20381;-51
2022/01/14 12:44:25;;;;;;;31.75;17.33;;;;;;;;;;5094003;28;20474;-53
2022/01/14 12:47:01;;;;;;;29.33;17.92;;;;;;;;;;5093923;28;20078;-52
2022/01/14 12:49:35;;;;;;;33.35;18.17;;;;;;;;;;5094569;28;20027;-53
2022/01/14 12:52:03;;;;;;;34.85;18.00;;;;;;;;;;5093878;28;20031;-50
2022/01/14 12:54:32;;;;;;;45.63;22.80;;;;;;;;;;5093973;28;20063;-54
2022/01/14 12:56:58;;;;;;;33.63;20.67;;;;;;;;;;5093915;28;20055;-54
2022/01/14 12:59:27;;;;;;;35.55;20.92;;;;;;;;;;5093726;28;20028;-54
2022/01/14 13:01:54;;;;;;;39.97;22.20;;;;;;;;;;5093965;28;20032;-54
2022/01/14 13:04:27;;;;;;;39.05;22.33;;;;;;;;;;5093617;28;20106;-52
2022/01/14 13:06:57;;;;;;;37.63;19.58;;;;;;;;;;5093868;28;20024;-58
2022/01/14 13:09:25;;;;;;;38.92;20.17;;;;;;;;;;5093774;28;20032;-54
2022/01/14 13:11:55;;;;;;;37.83;20.73;;;;;;;;;;5093777;28;20512;-54
2022/01/14 13:14:25;;;;;;;35.78;20.98;;;;;;;;;;5093523;28;20385;-52
2022/01/14 13:16:52;;;;;;;38.88;22.10;;;;;;;;;;5093399;28;20091;-55
2022/01/14 13:19:23;;;;;;;44.42;22.95;;;;;;;;;;5092923;28;20107;-56
2022/01/14 13:21:49;;;;;;;36.63;21.48;;;;;;;;;;5093625;28;20035;-54
2022/01/14 13:24:25;;;;;;;34.33;20.75;;;;;;;;;;5093388;28;20077;-51
2022/01/14 13:27:00;;;;;;;39.53;22.35;;;;;;;;;;5093521;28;20102;-52
2022/01/14 13:29:27;;;;;;;43.55;25.48;;;;;;;;;;5093024;28;20052;-52
2022/01/14 13:31:53;;;;;;;41.92;24.35;;;;;;;;;;5093350;28;20077;-50
2022/01/14 13:34:20;;;;;;;38.50;21.00;;;;;;;;;;5093221;28;20024;-51
2022/01/14 13:36:47;;;;;;;41.88;23.15;;;;;;;;;;5093509;28;20035;-49
2022/01/14 13:39:13;;;;;;;36.20;21.58;;;;;;;;;;5093303;28;20381;-50
2022/01/14 13:41:42;;;;;;;43.38;22.00;;;;;;;;;;5093193;28;20430;-52
2022/01/14 13:44:18;;;;;;;43.90;23.48;;;;;;;;;;5093087;28;20028;-50
2022/01/14 13:46:50;;;;;;;34.78;18.90;;;;;;;;;;5093106;28;20024;-50
2022/01/14 13:49:20;;;;;;;;;;;;;;;;;;5093767;28;20012;-51
2022/01/14 13:51:49;;;;;;;;;;;;;;;;;;5093885;28;19918;-51
2022/01/14 13:54:18;;;;;;;33.67;19.67;;;;;;;;;;5093152;28;19904;-51
2022/01/14 13:56:44;;;;;;;39.42;22.38;;;;;;;;;;5093131;28;20074;-51
2022/01/14 13:59:10;;;;;;;38.92;21.27;;;;;;;;;;5093029;28;20036;-50
2022/01/14 14:01:36;;;;;;;37.33;21.38;;;;;;;;;;5093491;28;20028;-51
2022/01/14 14:04:14;;;;;;;41.25;22.35;;;;;;;;;;5093121;28;20437;-52
2022/01/14 14:06:44;;;;;;;42.10;20.27;;;;;;;;;;5093180;28;20455;-52
2022/01/14 14:09:31;;;;;;;35.03;20.08;;;;;;;;;;5093046;28;20020;-51
2022/01/14 14:12:08;;;;;;;40.90;21.25;;;;;;;;;;5093208;28;20036;-52
2022/01/14 14:17:19;;;;;;;29.92;16.48;;;;;;;;;;5093013;28;20039;-51
2022/01/14 14:19:45;;;;;;;34.10;17.52;;;;;;;;;;5093104;28;20499;-50
2022/01/14 14:22:23;;;;;;;31.25;17.80;;;;;;;;;;5092910;28;20024;-50
2022/01/14 14:27:40;;;;;;;47.90;25.02;;;;;;;;;;5050319;28;20033;-50
2022/01/14 14:30:11;;;;;;;43.78;23.40;;;;;;;;;;5050357;28;20084;-52
2022/01/14 14:32:37;;;;;;;44.35;24.02;;;;;;;;;;5054085;28;20037;-52
2022/01/14 14:35:07;;;;;;;43.75;24.50;;;;;;;;;;5054624;28;20056;-52
2022/01/14 14:37:36;;;;;;;45.70;23.67;;;;;;;;;;5054166;28;20029;-55
2022/01/14 14:40:10;;;;;;;33.05;17.35;;;;;;;;;;5054002;28;20064;-52
2022/01/14 14:42:36;;;;;;;36.15;19.33;;;;;;;;;;5053996;28;20078;-52
2022/01/14 14:45:02;;;;;;;37.45;18.67;;;;;;;;;;5053937;28;20117;-54
2022/01/14 14:47:28;;;;;;;36.95;19.33;;;;;;;;;;5053797;28;20518;-51
2022/01/14 14:50:00;;;;;;;32.28;17.88;;;;;;;;;;5053780;28;20041;-55
2022/01/14 14:52:26;;;;;;;29.92;16.40;;;;;;;;;;5053875;28;20503;-53
2022/01/14 14:54:53;;;;;;;37.08;17.98;;;;;;;;;;5052954;28;20104;-52
2022/01/14 14:57:19;;;;;;;37.53;20.20;;;;;;;;;;5052948;28;20095;-49
2022/01/14 14:59:48;;;;;;;40.70;22.13;;;;;;;;;;5052845;28;20507;-51